createdAt,value
2022-10-11T00:02:00.658Z,99098.38
2022-10-11T00:04:27.486Z,99092.22
2022-10-11T00:06:54.866Z,99091.34
2022-10-11T00:09:21.818Z,99101.25
2022-10-11T00:11:49.496Z,99112.59
2022-10-11T00:14:16.748Z,99106.53
2022-10-11T00:16:44.620Z,99118.16
2022-10-11T00:19:11.877Z,99122.38
2022-10-11T00:21:42.116Z,99115.66
2022-10-11T00:24:10.688Z,99107.97
2022-10-11T00:26:37.319Z,99115.59
2022-10-11T00:29:04.312Z,99117.06
2022-10-11T00:31:35.528Z,99118.22
2022-10-11T00:34:05.163Z,99115.19
2022-10-11T00:36:32.183Z,99116.91
2022-10-11T00:38:59.470Z,99118.25
2022-10-11T00:41:26.363Z,99115.34
2022-10-11T00:44:17.134Z,99121.63
2022-10-11T00:46:54.990Z,99116.94
2022-10-11T00:49:43.796Z,99113.63
2022-10-11T00:52:34.002Z,99116.25
2022-10-11T00:55:08.718Z,99116.59
2022-10-11T00:57:39.543Z,99121.59
2022-10-11T01:00:08.356Z,99116.50
2022-10-11T01:02:35.867Z,99121.72
2022-10-11T01:05:28.162Z,99119.91
2022-10-11T01:07:53.662Z,99122.06
2022-10-11T01:10:22.375Z,99125.28
2022-10-11T01:13:20.169Z,99126.75
2022-10-11T01:16:06.255Z,99130.81
2022-10-11T01:18:58.886Z,99135.38
2022-10-11T01:21:53.723Z,99133.44
2022-10-11T01:24:52.351Z,99130.06
2022-10-11T01:27:39.772Z,99144.50
2022-10-11T01:30:26.486Z,99136.56
2022-10-11T01:33:00.736Z,99141.09
2022-10-11T01:35:35.701Z,99135.06
2022-10-11T01:38:11.463Z,99141.22
2022-10-11T01:40:46.275Z,99143.47
2022-10-11T01:43:15.542Z,99148.41
2022-10-11T01:45:44.922Z,99150.22
2022-10-11T01:48:14.180Z,99146.44
2022-10-11T01:50:57.224Z,99149.19
2022-10-11T01:54:04.573Z,99147.03
2022-10-11T01:56:49.880Z,99150.69
2022-10-11T01:59:22.888Z,99154.31
2022-10-11T02:02:02.878Z,99152.03
2022-10-11T02:04:48.207Z,99153.41
2022-10-11T02:07:33.638Z,99160.94
2022-10-11T02:10:32.848Z,99163.22
2022-10-11T02:13:26.785Z,99157.28
2022-10-11T02:15:58.111Z,99162.66
2022-10-11T02:18:29.122Z,99166.84
2022-10-11T02:20:59.473Z,99163.78
2022-10-11T02:23:30.173Z,99171.19
2022-10-11T02:25:58.238Z,99167.91
2022-10-11T02:28:30.306Z,99167.31
2022-10-11T02:30:59.441Z,99165.16
2022-10-11T02:33:42.655Z,99162.19
2022-10-11T02:36:25.625Z,99158.44
2022-10-11T02:38:58.367Z,99159.13
2022-10-11T02:41:36.659Z,99161.06
2022-10-11T02:44:09.463Z,99158.22
2022-10-11T02:46:38.038Z,99154.78
2022-10-11T02:49:05.294Z,99158.75
2022-10-11T02:51:32.890Z,99148.28
2022-10-11T02:54:00.353Z,99140.06
2022-10-11T02:56:29.862Z,99143.38
2022-10-11T02:58:56.692Z,99149.31
2022-10-11T03:01:23.644Z,99149.78
2022-10-11T03:03:51.363Z,99155.13
2022-10-11T03:06:18.066Z,99156.13
2022-10-11T03:08:44.918Z,99155.00
2022-10-11T03:11:11.833Z,99163.66
2022-10-11T03:13:38.812Z,99174.59
2022-10-11T03:16:05.797Z,99178.28
2022-10-11T03:18:32.570Z,99176.78
2022-10-11T03:20:59.259Z,99181.00
2022-10-11T03:23:26.009Z,99187.97
2022-10-11T03:25:52.805Z,99198.88
2022-10-11T03:28:22.542Z,99195.09
2022-10-11T03:30:50.240Z,99208.31
2022-10-11T03:33:20.491Z,99206.06
2022-10-11T03:35:49.050Z,99212.44
2022-10-11T03:38:22.358Z,99212.09
2022-10-11T03:40:49.261Z,99217.09
2022-10-11T03:43:16.477Z,99213.47
2022-10-11T03:45:43.455Z,99217.91
2022-10-11T03:48:11.241Z,99216.69
2022-10-11T03:50:38.734Z,99217.22
2022-10-11T03:53:06.998Z,99220.56
2022-10-11T03:55:34.104Z,99223.75
2022-10-11T03:58:01.404Z,99222.47
2022-10-11T04:00:28.179Z,99225.69
2022-10-11T04:02:55.097Z,99227.50
2022-10-11T04:05:22.458Z,99225.56
2022-10-11T04:07:51.725Z,99229.09
2022-10-11T04:10:21.644Z,99228.22
2022-10-11T04:12:48.466Z,99227.53
2022-10-11T04:15:17.403Z,99236.19
2022-10-11T04:17:44.366Z,99234.47
2022-10-11T04:20:11.350Z,99231.97
2022-10-11T04:22:38.671Z,99228.66
2022-10-11T04:25:07.336Z,99230.84
2022-10-11T04:27:34.997Z,99233.56
2022-10-11T04:30:02.399Z,99234.13
2022-10-11T04:32:29.319Z,99237.91
2022-10-11T04:34:56.470Z,99233.69
2022-10-11T04:37:23.334Z,99237.81
2022-10-11T04:39:53.437Z,99231.63
2022-10-11T04:42:20.747Z,99229.00
2022-10-11T04:44:47.768Z,99232.88
2022-10-11T04:47:16.288Z,99238.69
2022-10-11T04:49:43.450Z,99245.09
2022-10-11T04:52:10.681Z,99247.03
2022-10-11T04:54:37.539Z,99246.78
2022-10-11T04:57:06.730Z,99246.09
2022-10-11T04:59:34.174Z,99242.13
2022-10-11T05:02:00.848Z,99252.16
2022-10-11T05:04:27.522Z,99259.81
2022-10-11T05:06:54.336Z,99260.38
2022-10-11T05:09:21.790Z,99266.19
2022-10-11T05:11:48.312Z,99264.69
2022-10-11T05:14:14.832Z,99265.59
2022-10-11T05:16:41.328Z,99276.91
2022-10-11T05:19:10.754Z,99268.34
2022-10-11T05:21:37.153Z,99268.22
2022-10-11T05:24:03.896Z,99264.66
2022-10-11T05:26:30.808Z,99272.53
2022-10-11T05:28:57.479Z,99274.47
2022-10-11T05:31:24.741Z,99272.88
2022-10-11T05:33:51.540Z,99271.25
2022-10-11T05:36:18.199Z,99288.59
2022-10-11T05:38:45.196Z,99282.28
2022-10-11T05:41:14.294Z,99290.28
2022-10-11T05:43:40.948Z,99299.16
2022-10-11T05:46:08.166Z,99298.88
2022-10-11T05:48:34.852Z,99301.31
2022-10-11T05:51:03.684Z,99304.69
2022-10-11T05:53:31.290Z,99311.34
2022-10-11T05:55:58.060Z,99306.31
2022-10-11T05:58:25.107Z,99309.16
2022-10-11T06:00:51.558Z,99305.47
2022-10-11T06:03:20.984Z,99315.97
2022-10-11T06:05:47.749Z,99316.97
2022-10-11T06:08:14.973Z,99325.13
2022-10-11T06:10:41.736Z,99327.19
2022-10-11T06:13:09.348Z,99329.81
2022-10-11T06:15:39.140Z,99324.03
2022-10-11T06:18:05.650Z,99327.22
2022-10-11T06:20:32.198Z,99327.34
2022-10-11T06:22:59.052Z,99334.88
2022-10-11T06:25:25.589Z,99334.66
2022-10-11T06:27:52.105Z,99338.53
2022-10-11T06:30:18.689Z,99345.41
2022-10-11T06:32:45.292Z,99351.56
2022-10-11T06:35:11.964Z,99350.88
2022-10-11T06:37:38.469Z,99353.03
2022-10-11T06:40:05.370Z,99364.31
2022-10-11T06:42:31.969Z,99363.28
2022-10-11T06:44:58.580Z,99366.41
2022-10-11T06:47:25.045Z,99368.75
2022-10-11T06:49:51.531Z,99370.72
2022-10-11T06:52:18.016Z,99379.94
2022-10-11T06:54:45.588Z,99390.50
2022-10-11T06:57:12.570Z,99388.34
2022-10-11T06:59:39.058Z,99383.06
2022-10-11T07:02:05.617Z,99389.22
2022-10-11T07:04:33.748Z,99389.88
2022-10-11T07:07:00.372Z,99398.31
2022-10-11T07:09:26.745Z,99394.78
2022-10-11T07:11:53.252Z,99401.41
2022-10-11T07:14:21.724Z,99401.75
2022-10-11T07:16:48.281Z,99406.47
2022-10-11T07:19:14.930Z,99406.25
2022-10-11T07:21:41.439Z,99409.56
2022-10-11T07:24:08.063Z,99415.94
2022-10-11T07:26:38.692Z,99425.09
2022-10-11T07:29:07.905Z,99419.63
2022-10-11T07:32:30.195Z,99422.47
2022-10-11T07:34:56.864Z,99417.34
2022-10-11T07:37:23.368Z,99420.41
2022-10-11T07:39:49.850Z,99424.66
2022-10-11T07:42:16.290Z,99419.16
2022-10-11T07:44:42.775Z,99420.53
2022-10-11T07:47:11.489Z,99427.38
2022-10-11T07:49:38.112Z,99422.47
2022-10-11T07:52:04.829Z,99424.63
2022-10-11T07:54:32.827Z,99421.44
2022-10-11T07:56:59.620Z,99430.59
2022-10-11T07:59:26.315Z,99433.00
2022-10-11T08:01:53.020Z,99436.09
2022-10-11T08:04:21.265Z,99434.81
2022-10-11T08:06:51.079Z,99434.69
2022-10-11T08:09:19.794Z,99427.50
2022-10-11T08:11:46.220Z,99432.16
2022-10-11T08:14:12.758Z,99436.16
2022-10-11T08:16:39.423Z,99427.72
2022-10-11T08:19:06.913Z,99434.84
2022-10-11T08:21:33.848Z,99435.19
2022-10-11T08:24:02.874Z,99425.59
2022-10-11T08:26:32.928Z,99419.41
2022-10-11T08:29:03.254Z,99425.78
2022-10-11T08:31:30.003Z,99424.59
2022-10-11T08:33:57.358Z,99413.91
2022-10-11T08:36:24.005Z,99407.13
2022-10-11T08:38:50.686Z,99413.59
2022-10-11T08:41:31.624Z,99416.84
2022-10-11T08:43:58.171Z,99416.19
2022-10-11T08:46:30.983Z,99413.06
2022-10-11T08:48:57.924Z,99417.94
2022-10-11T08:51:32.103Z,99418.91
2022-10-11T08:54:44.661Z,99418.94
2022-10-11T08:57:16.269Z,99421.66
2022-10-11T09:00:01.561Z,99434.66
2022-10-11T09:03:08.543Z,99435.09
2022-10-11T09:05:39.789Z,99426.78
2022-10-11T09:08:29.760Z,99426.41
2022-10-11T09:11:14.326Z,99418.44
2022-10-11T09:14:07.617Z,99421.84
2022-10-11T09:16:48.019Z,99429.09
2022-10-11T09:19:41.882Z,99434.56
2022-10-11T09:22:20.556Z,99426.66
2022-10-11T09:25:15.322Z,99416.00
2022-10-11T09:28:08.798Z,99421.03
2022-10-11T09:30:39.696Z,99422.63
2022-10-11T09:33:23.165Z,99422.88
2022-10-11T09:35:52.810Z,99420.41
2022-10-11T09:38:25.353Z,99416.44
2022-10-11T09:41:05.765Z,99423.41
2022-10-11T09:43:32.567Z,99423.25
2022-10-11T09:45:59.191Z,99427.22
2022-10-11T09:48:38.740Z,99429.31
2022-10-11T09:51:11.614Z,99429.47
2022-10-11T09:53:54.971Z,99431.09
2022-10-11T09:56:24.125Z,99422.69
2022-10-11T09:59:29.583Z,99430.22
2022-10-11T10:02:15.009Z,99428.88
2022-10-11T10:04:53.845Z,99428.09
2022-10-11T10:07:21.645Z,99431.28
2022-10-11T10:09:49.656Z,99430.72
2022-10-11T10:12:22.936Z,99431.78
2022-10-11T10:15:03.927Z,99424.28
2022-10-11T10:17:31.272Z,99422.16
2022-10-11T10:20:00.496Z,99424.44
2022-10-11T10:22:33.627Z,99421.78
2022-10-11T10:25:02.947Z,99423.78
2022-10-11T10:27:31.036Z,99426.66
2022-10-11T10:30:02.535Z,99424.72
2022-10-11T10:32:36.874Z,99432.47
2022-10-11T10:35:35.601Z,99425.69
2022-10-11T10:38:24.104Z,99436.50
2022-10-11T10:40:56.598Z,99432.91
2022-10-11T10:43:26.641Z,99430.78
2022-10-11T10:46:26.617Z,99441.81
2022-10-11T10:49:52.571Z,99441.50
2022-10-11T10:52:34.438Z,99435.38
2022-10-11T10:55:14.016Z,99431.41
2022-10-11T10:57:57.888Z,99431.22
2022-10-11T11:00:25.009Z,99423.97
2022-10-11T11:03:11.315Z,99421.69
2022-10-11T11:05:57.575Z,99423.13
2022-10-11T11:08:35.750Z,99419.72
2022-10-11T11:11:26.691Z,99420.25
2022-10-11T11:14:27.931Z,99419.63
2022-10-11T11:17:06.217Z,99420.13
2022-10-11T11:20:01.235Z,99417.78
2022-10-11T11:22:57.923Z,99415.88
2022-10-11T11:25:40.319Z,99414.31
2022-10-11T11:28:35.265Z,99414.09
2022-10-11T11:31:22.036Z,99414.63
2022-10-11T11:34:29.105Z,99414.03
2022-10-11T11:37:00.618Z,99413.31
2022-10-11T11:39:35.746Z,99419.44
2022-10-11T11:42:15.238Z,99416.91
2022-10-11T11:44:46.774Z,99417.50
2022-10-11T11:47:25.858Z,99411.00
2022-10-11T11:50:07.447Z,99414.78
2022-10-11T11:52:37.731Z,99409.84
2022-10-11T11:55:36.796Z,99409.41
2022-10-11T11:58:34.310Z,99417.13
2022-10-11T12:01:31.479Z,99406.06
2022-10-11T12:04:32.500Z,99403.22
2022-10-11T12:07:17.752Z,99409.66
2022-10-11T12:09:50.796Z,99404.34
2022-10-11T12:12:36.621Z,99406.06
2022-10-11T12:15:09.299Z,99400.09
2022-10-11T12:18:13.819Z,99398.56
2022-10-11T12:20:41.956Z,99396.66
2022-10-11T12:23:30.442Z,99399.50
2022-10-11T12:26:28.254Z,99399.88
2022-10-11T12:29:46.194Z,99391.28
2022-10-11T12:32:28.282Z,99394.81
2022-10-11T12:35:33.413Z,99393.50
2022-10-11T12:38:17.016Z,99396.66
2022-10-11T12:40:47.140Z,99396.59
2022-10-11T12:43:19.760Z,99394.59
2022-10-11T12:45:48.069Z,99392.25
2022-10-11T12:48:26.419Z,99396.91
2022-10-11T12:51:20.763Z,99389.03
2022-10-11T12:54:36.846Z,99381.94
2022-10-11T12:57:28.562Z,99372.09
2022-10-11T13:00:10.000Z,99374.78
2022-10-11T13:02:42.646Z,99375.78
2022-10-11T13:05:35.961Z,99380.19
2022-10-11T13:08:05.481Z,99370.25
2022-10-11T13:10:43.758Z,99372.47
2022-10-11T13:13:21.444Z,99374.19
2022-10-11T13:15:48.448Z,99368.41
2022-10-11T13:18:16.854Z,99371.78
2022-10-11T13:20:43.955Z,99367.84
2022-10-11T13:23:39.773Z,99370.38
2022-10-11T13:26:06.917Z,99374.44
2022-10-11T13:28:36.639Z,99367.03
2022-10-11T13:31:04.555Z,99362.13
2022-10-11T13:33:34.491Z,99374.81
2022-10-11T13:36:05.322Z,99367.41
2022-10-11T13:38:35.657Z,99372.16
2022-10-11T13:41:08.658Z,99366.53
2022-10-11T13:43:36.677Z,99366.84
2022-10-11T13:46:06.763Z,99375.66
2022-10-11T13:48:41.523Z,99365.59
2022-10-11T13:51:27.653Z,99366.69
2022-10-11T13:54:05.631Z,99357.03
2022-10-11T13:56:37.797Z,99358.91
2022-10-11T13:59:07.811Z,99349.69
2022-10-11T14:01:44.034Z,99351.97
2022-10-11T14:04:12.768Z,99355.47
2022-10-11T14:06:45.301Z,99357.03
2022-10-11T14:09:20.196Z,99350.72
2022-10-11T14:11:47.319Z,99349.50
2022-10-11T14:14:40.480Z,99349.72
2022-10-11T14:17:16.985Z,99346.94
2022-10-11T14:19:45.997Z,99347.91
2022-10-11T14:22:18.119Z,99352.84
2022-10-11T14:24:48.437Z,99348.88
2022-10-11T14:27:19.310Z,99357.69
2022-10-11T14:30:00.543Z,99350.22
2022-10-11T14:32:34.764Z,99344.63
2022-10-11T14:35:01.397Z,99353.47
2022-10-11T14:37:28.019Z,99350.97
2022-10-11T14:39:54.643Z,99358.19
2022-10-11T14:42:21.238Z,99351.56
2022-10-11T14:44:47.764Z,99353.78
2022-10-11T14:47:17.374Z,99346.91
2022-10-11T14:49:44.296Z,99356.44
2022-10-11T14:52:13.074Z,99360.44
2022-10-11T14:54:40.030Z,99352.38
2022-10-11T14:57:06.578Z,99358.41
2022-10-11T14:59:37.813Z,99361.56
2022-10-11T15:02:07.800Z,99359.06
2022-10-11T15:04:34.574Z,99359.19
2022-10-11T15:07:01.334Z,99360.44
2022-10-11T15:09:29.243Z,99358.63
2022-10-11T15:11:56.901Z,99357.94
2022-10-11T15:14:24.125Z,99363.31
2022-10-11T15:16:50.757Z,99361.56
2022-10-11T15:19:22.587Z,99362.28
2022-10-11T15:21:49.510Z,99354.97
2022-10-11T15:24:19.821Z,99355.16
2022-10-11T15:26:47.309Z,99354.91
2022-10-11T15:29:14.664Z,99361.97
2022-10-11T15:31:41.365Z,99362.63
2022-10-11T15:34:07.887Z,99362.94
2022-10-11T15:36:34.662Z,99364.72
2022-10-11T15:39:01.897Z,99369.88
2022-10-11T15:41:28.388Z,99364.59
2022-10-11T15:43:54.826Z,99368.09
2022-10-11T15:46:22.545Z,99371.53
2022-10-11T15:48:50.239Z,99368.03
2022-10-11T15:51:17.225Z,99364.00
2022-10-11T15:53:44.108Z,99373.69
2022-10-11T15:56:15.292Z,99371.03
2022-10-11T15:58:42.657Z,99370.00
2022-10-11T16:01:18.117Z,99370.38
2022-10-11T16:03:49.101Z,99369.94
2022-10-11T16:06:17.112Z,99368.03
2022-10-11T16:08:44.958Z,99365.22
2022-10-11T16:11:12.525Z,99373.97
2022-10-11T16:13:39.337Z,99367.91
2022-10-11T16:16:08.271Z,99369.03
2022-10-11T16:18:36.152Z,99375.09
2022-10-11T16:21:08.643Z,99371.81
2022-10-11T16:23:36.387Z,99380.34
2022-10-11T16:26:06.968Z,99377.59
2022-10-11T16:28:34.314Z,99383.66
2022-10-11T16:31:06.740Z,99382.72
2022-10-11T16:33:33.537Z,99386.06
2022-10-11T16:36:19.999Z,99388.06
2022-10-11T16:38:46.477Z,99390.22
2022-10-11T16:41:13.022Z,99391.97
2022-10-11T16:43:40.128Z,99393.06
2022-10-11T16:46:07.088Z,99397.00
2022-10-11T16:48:33.972Z,99391.41
2022-10-11T16:51:07.916Z,99398.22
2022-10-11T16:53:38.019Z,99393.47
2022-10-11T16:56:09.793Z,99393.25
2022-10-11T16:58:36.848Z,99386.16
2022-10-11T17:01:08.743Z,99397.94
2022-10-11T17:03:35.394Z,99396.75
2022-10-11T17:06:02.209Z,99396.97
2022-10-11T17:08:29.164Z,99397.31
2022-10-11T17:10:57.692Z,99394.59
2022-10-11T17:13:24.697Z,99395.19
2022-10-11T17:15:51.177Z,99395.34
2022-10-11T17:18:17.842Z,99396.75
2022-10-11T17:20:44.567Z,99394.06
2022-10-11T17:23:11.414Z,99393.75
2022-10-11T17:25:43.095Z,99397.25
2022-10-11T17:28:09.761Z,99393.25
2022-10-11T17:30:37.773Z,99396.13
2022-10-11T17:33:04.339Z,99393.47
2022-10-11T17:35:32.344Z,99398.94
2022-10-11T17:38:05.004Z,99395.84
2022-10-11T17:40:33.976Z,99404.31
2022-10-11T17:43:00.718Z,99396.38
2022-10-11T17:45:27.308Z,99396.16
2022-10-11T17:47:53.853Z,99400.97
2022-10-11T17:50:20.389Z,99398.94
2022-10-11T17:52:47.140Z,99400.97
2022-10-11T17:55:13.690Z,99397.44
2022-10-11T17:57:40.191Z,99393.25
2022-10-11T18:00:07.411Z,99401.69
2022-10-11T18:02:33.861Z,99403.50
2022-10-11T18:05:00.291Z,99400.97
2022-10-11T18:07:26.891Z,99396.63
2022-10-11T18:09:54.367Z,99396.16
2022-10-11T18:12:20.960Z,99400.66
2022-10-11T18:14:47.674Z,99397.56
2022-10-11T18:17:18.263Z,99397.66
2022-10-11T18:19:44.927Z,99399.38
2022-10-11T18:22:11.377Z,99395.81
2022-10-11T18:24:39.086Z,99397.97
2022-10-11T18:27:05.858Z,99397.44
2022-10-11T18:29:32.479Z,99396.44
2022-10-11T18:31:59.013Z,99400.81
2022-10-11T18:34:25.759Z,99397.25
2022-10-11T18:36:52.281Z,99397.22
2022-10-11T18:39:20.826Z,99395.31
2022-10-11T18:41:47.370Z,99396.38
2022-10-11T18:44:15.493Z,99393.63
2022-10-11T18:46:43.019Z,99390.13
2022-10-11T18:49:09.922Z,99389.22
2022-10-11T18:51:39.084Z,99392.75
2022-10-11T18:54:07.453Z,99402.31
2022-10-11T18:56:35.586Z,99395.03
2022-10-11T18:59:02.106Z,99393.53
2022-10-11T19:01:31.721Z,99400.16
2022-10-11T19:04:00.647Z,99406.91
2022-10-11T19:06:33.253Z,99407.72
2022-10-11T19:09:04.184Z,99406.00
2022-10-11T19:11:31.317Z,99400.03
2022-10-11T19:14:00.588Z,99393.56
2022-10-11T19:16:32.482Z,99398.56
2022-10-11T19:19:01.895Z,99392.28
2022-10-11T19:21:29.418Z,99386.91
2022-10-11T19:23:57.143Z,99387.16
2022-10-11T19:26:35.859Z,99393.44
2022-10-11T19:29:03.977Z,99391.06
2022-10-11T19:31:32.303Z,99390.97
2022-10-11T19:33:59.534Z,99393.59
2022-10-11T19:36:26.813Z,99394.38
2022-10-11T19:38:56.917Z,99399.75
2022-10-11T19:41:25.227Z,99402.59
2022-10-11T19:43:52.489Z,99398.03
2022-10-11T19:46:44.595Z,99404.78
2022-10-11T19:49:08.438Z,99399.75
2022-10-11T19:51:35.334Z,99409.59
2022-10-11T19:54:04.346Z,99407.06
2022-10-11T19:56:32.808Z,99401.78
2022-10-11T19:59:00.860Z,99410.47
2022-10-11T20:01:30.320Z,99405.78
2022-10-11T20:04:03.673Z,99398.44
2022-10-11T20:06:37.235Z,99401.88
2022-10-11T20:09:28.000Z,99395.47
2022-10-11T20:11:51.537Z,99396.22
2022-10-11T20:14:20.095Z,99404.22
2022-10-11T20:16:50.042Z,99405.84
2022-10-11T20:19:16.717Z,99404.44
2022-10-11T20:21:44.011Z,99402.63
2022-10-11T20:24:10.788Z,99406.84
2022-10-11T20:26:37.399Z,99407.56
2022-10-11T20:29:03.812Z,99410.53
2022-10-11T20:31:33.072Z,99411.94
2022-10-11T20:34:02.195Z,99409.56
2022-10-11T20:36:30.151Z,99417.44
2022-10-11T20:38:58.074Z,99416.16
2022-10-11T20:41:33.477Z,99420.91
2022-10-11T20:44:01.423Z,99417.03
2022-10-11T20:46:33.009Z,99414.16
2022-10-11T20:49:02.526Z,99415.88
2022-10-11T20:51:30.868Z,99422.81
2022-10-11T20:53:58.861Z,99425.81
2022-10-11T20:56:25.729Z,99424.34
2022-10-11T20:58:54.961Z,99428.22
2022-10-11T21:01:43.063Z,99431.00
2022-10-11T21:04:17.506Z,99427.19
2022-10-11T21:06:44.259Z,99424.22
2022-10-11T21:09:14.051Z,99424.03
2022-10-11T21:11:42.886Z,99416.81
2022-10-11T21:14:09.380Z,99421.16
2022-10-11T21:16:36.515Z,99421.84
2022-10-11T21:19:03.914Z,99416.00
2022-10-11T21:21:31.161Z,99416.53
2022-10-11T21:24:00.611Z,99417.94
2022-10-11T21:26:27.638Z,99418.06
2022-10-11T21:28:54.418Z,99418.41
2022-10-11T21:31:22.466Z,99417.16
2022-10-11T21:33:49.145Z,99414.75
2022-10-11T21:36:20.727Z,99412.44
2022-10-11T21:38:48.019Z,99416.00
2022-10-11T21:41:25.444Z,99412.44
2022-10-11T21:43:52.779Z,99419.03
2022-10-11T21:46:20.602Z,99413.78
2022-10-11T21:48:48.068Z,99413.44
2022-10-11T21:51:17.429Z,99413.13
2022-10-11T21:53:44.024Z,99416.06
2022-10-11T21:56:10.761Z,99416.88
2022-10-11T21:58:37.427Z,99417.88
2022-10-11T22:01:04.148Z,99419.69
2022-10-11T22:03:30.751Z,99424.13
2022-10-11T22:05:58.695Z,99414.75
2022-10-11T22:08:25.115Z,99413.69
2022-10-11T22:10:58.838Z,99411.72
2022-10-11T22:13:26.983Z,99403.91
2022-10-11T22:15:53.615Z,99406.44
2022-10-11T22:18:20.457Z,99414.06
2022-10-11T22:20:47.102Z,99409.72
2022-10-11T22:23:13.837Z,99408.19
2022-10-11T22:25:43.218Z,99408.31
2022-10-11T22:28:09.841Z,99411.47
2022-10-11T22:30:36.343Z,99411.72
2022-10-11T22:33:02.995Z,99404.63
2022-10-11T22:35:31.395Z,99413.88
2022-10-11T22:38:00.071Z,99409.84
2022-10-11T22:40:26.714Z,99407.88
2022-10-11T22:42:53.459Z,99406.41
2022-10-11T22:45:19.944Z,99405.59
2022-10-11T22:47:46.462Z,99402.91
2022-10-11T22:50:12.889Z,99406.75
2022-10-11T22:52:39.359Z,99405.13
2022-10-11T22:55:06.481Z,99404.09
2022-10-11T22:57:32.949Z,99410.03
2022-10-11T22:59:59.443Z,99411.44
2022-10-11T23:02:26.013Z,99423.03
2022-10-11T23:04:54.177Z,99422.41
2022-10-11T23:07:22.252Z,99430.53
2022-10-11T23:09:48.749Z,99419.72
2022-10-11T23:12:15.221Z,99421.69
2022-10-11T23:14:41.688Z,99417.25
2022-10-11T23:17:08.124Z,99419.06
2022-10-11T23:19:34.527Z,99415.19
2022-10-11T23:22:00.978Z,99412.75
2022-10-11T23:24:27.424Z,99415.81
2022-10-11T23:26:53.907Z,99419.22
2022-10-11T23:29:20.597Z,99421.25
2022-10-11T23:31:47.209Z,99416.31
2022-10-11T23:34:14.259Z,99410.59
2022-10-11T23:36:40.878Z,99413.78
2022-10-11T23:39:07.411Z,99410.47
2022-10-11T23:41:34.010Z,99401.94
2022-10-11T23:44:00.450Z,99409.44
2022-10-11T23:46:27.289Z,99408.25
2022-10-11T23:48:53.785Z,99413.91
2022-10-11T23:51:20.304Z,99404.69
2022-10-11T23:53:46.853Z,99406.28
2022-10-11T23:56:13.688Z,99405.84
2022-10-11T23:58:40.347Z,99404.25
